New Almaden, California
Current Conditions -  °F | °C
As of 7:47 PM on Wednesday 22 Oct 2014 (Local Time) from KRHV Reporting Station
Clear Clear  
Wind Chill: 70°   Ceiling: Unl
Heat Index: 70°   Visibility: 10mi
Dew Point: 59°   Wind: 8mph
Humidity: 68%   Direction: 290°WNW
Pressure: 30.06"   Gusts: NA
Location:  37.18°N, 121.82°W
Report Text: KRHV 230247Z 29007KT 10SM SKC 21/15 A3006
Loading
Personal Weather Stations






























Interactive Weather Map
Tropical Storm Tracking
New forecast layout! Learn more

10-Day Weather Forecast

Advertisements
Track Severe Weather on mobile